Time;durP1;ratioP1;P1;durP2;ratioP2;P2;SDS_P1;SDS_P2;PMS_P1;PMS_P2;Temp;Humidity;BMP_temperature;BMP_pressure;BME280_temperature;BME280_humidity;BME280_pressure;Samples;Min_cycle;Max_cycle;Signal;HPM_P1;HPM_P2
2022/04/29 00:00:39;;;;;;;13.70;11.07;;;15.30;99.90;;;;;;5012407;28;20228;-74
2022/04/29 00:03:07;;;;;;;13.38;9.55;;;15.40;99.90;;;;;;5012511;28;20206;-74
2022/04/29 00:05:35;;;;;;;16.58;10.77;;;15.30;99.90;;;;;;5012088;28;20284;-73
2022/04/29 00:08:02;;;;;;;11.57;9.43;;;15.20;99.90;;;;;;5012168;28;20218;-75
2022/04/29 00:10:29;;;;;;;14.23;10.57;;;15.10;99.90;;;;;;5011852;28;20267;-75
2022/04/29 00:12:59;;;;;;;14.63;11.30;;;15.00;99.90;;;;;;5012226;28;20208;-74
2022/04/29 00:15:26;;;;;;;11.40;10.10;;;15.00;99.90;;;;;;5011961;28;20209;-75
2022/04/29 00:17:53;;;;;;;12.50;9.68;;;15.10;99.90;;;;;;5012112;28;20208;-75
2022/04/29 00:20:20;;;;;;;13.38;9.70;;;15.10;99.90;;;;;;5011566;28;20225;-75
2022/04/29 00:22:47;;;;;;;13.70;10.05;;;15.10;99.90;;;;;;5011421;28;20555;-74
2022/04/29 00:25:15;;;;;;;12.00;8.95;;;15.20;99.90;;;;;;5011975;28;20204;-74
2022/04/29 00:27:42;;;;;;;12.20;9.93;;;15.20;99.90;;;;;;5012577;28;20247;-74
2022/04/29 00:30:12;;;;;;;12.75;9.32;;;15.30;99.90;;;;;;5011185;28;20200;-75
2022/04/29 00:32:40;;;;;;;12.55;9.43;;;15.30;99.90;;;;;;5005875;28;20208;-75
2022/04/29 00:35:09;;;;;;;12.52;9.90;;;15.30;99.90;;;;;;5012018;28;20680;-75
2022/04/29 00:37:44;;;;;;;12.07;9.63;;;15.40;99.90;;;;;;5011467;28;20200;-76
2022/04/29 00:40:17;;;;;;;15.65;10.07;;;15.40;99.90;;;;;;5012139;28;20232;-76
2022/04/29 00:42:45;;;;;;;12.07;9.13;;;15.30;99.90;;;;;;5011783;28;20726;-76
2022/04/29 00:45:15;;;;;;;13.98;9.57;;;15.30;99.90;;;;;;5011917;28;20208;-75
2022/04/29 00:47:42;;;;;;;11.13;9.23;;;15.40;99.90;;;;;;5012028;28;20266;-75
2022/04/29 00:50:10;;;;;;;15.00;8.95;;;15.30;99.90;;;;;;5011743;28;20212;-75
2022/04/29 00:52:42;;;;;;;11.95;8.90;;;15.30;99.90;;;;;;5011423;28;20200;-75
2022/04/29 00:55:11;;;;;;;13.52;9.02;;;15.20;99.90;;;;;;5011582;28;20258;-74
2022/04/29 00:57:44;;;;;;;11.43;9.57;;;15.20;99.90;;;;;;5011323;28;20200;-75
2022/04/29 01:00:15;;;;;;;12.70;8.95;;;15.20;99.90;;;;;;5011366;28;20279;-75
2022/04/29 01:02:44;;;;;;;11.63;9.82;;;15.20;99.90;;;;;;5011931;28;20296;-74
2022/04/29 01:05:12;;;;;;;10.60;9.45;;;15.20;99.90;;;;;;5011723;28;20208;-74
2022/04/29 01:07:41;;;;;;;10.68;8.68;;;15.20;99.90;;;;;;5003799;28;20625;-74
2022/04/29 01:10:11;;;;;;;17.63;9.77;;;15.20;99.90;;;;;;5011666;28;20212;-73
2022/04/29 01:12:40;;;;;;;12.43;8.90;;;15.20;99.90;;;;;;5003317;28;20279;-74
2022/04/29 01:15:10;;;;;;;12.95;8.10;;;15.10;99.90;;;;;;5011095;28;20619;-73
2022/04/29 01:17:39;;;;;;;12.98;9.27;;;15.20;99.90;;;;;;5010625;28;20676;-74
2022/04/29 01:20:09;;;;;;;14.60;9.00;;;15.30;99.90;;;;;;5011100;28;20282;-75
2022/04/29 01:22:38;;;;;;;9.98;8.15;;;15.30;99.90;;;;;;5010876;28;20206;-75
2022/04/29 01:25:05;;;;;;;8.98;7.53;;;15.20;99.90;;;;;;5011083;28;20220;-75
2022/04/29 01:27:32;;;;;;;12.07;8.95;;;15.20;99.90;;;;;;5009968;28;20204;-75
2022/04/29 01:30:02;;;;;;;10.82;8.65;;;15.20;99.90;;;;;;5010962;28;20250;-74
2022/04/29 01:32:31;;;;;;;10.77;7.80;;;15.10;99.90;;;;;;5010532;28;20242;-76
2022/04/29 01:34:58;;;;;;;10.10;9.02;;;15.00;99.90;;;;;;5010027;28;20200;-75
2022/04/29 01:37:25;;;;;;;9.88;8.63;;;15.10;99.90;;;;;;5010536;28;20196;-75
2022/04/29 01:39:53;;;;;;;20.23;9.65;;;15.10;99.90;;;;;;5010727;28;20196;-73
2022/04/29 01:42:21;;;;;;;9.98;8.38;;;15.10;99.90;;;;;;5010207;28;20270;-73
2022/04/29 01:44:48;;;;;;;11.85;8.48;;;15.10;99.90;;;;;;5002949;28;20250;-73
2022/04/29 01:47:15;;;;;;;9.50;8.40;;;15.00;99.90;;;;;;5009938;28;20746;-73
2022/04/29 01:49:42;;;;;;;10.52;9.48;;;15.10;99.90;;;;;;5010498;28;20584;-74
2022/04/29 01:52:10;;;;;;;10.77;8.13;;;15.10;99.90;;;;;;5011146;28;20212;-75
2022/04/29 01:54:38;;;;;;;10.07;7.82;;;15.10;99.90;;;;;;5010064;28;20258;-74
2022/04/29 01:57:07;;;;;;;11.20;8.63;;;15.10;99.90;;;;;;5010351;28;20240;-73
2022/04/29 01:59:35;;;;;;;8.40;7.57;;;15.10;99.90;;;;;;5009653;28;20680;-73
2022/04/29 02:02:03;;;;;;;12.63;8.18;;;15.10;99.90;;;;;;5010702;28;20227;-73
2022/04/29 02:04:30;;;;;;;11.50;9.55;;;15.10;99.90;;;;;;5010055;28;20202;-74
2022/04/29 02:06:57;;;;;;;11.63;8.00;;;15.10;99.90;;;;;;5010352;28;20249;-75
2022/04/29 02:09:24;;;;;;;9.32;8.43;;;15.10;99.90;;;;;;5009760;28;20753;-74
2022/04/29 02:12:06;;;;;;;7.75;6.95;;;15.00;99.90;;;;;;5010633;28;20219;-75
2022/04/29 02:14:36;;;;;;;8.85;7.40;;;15.00;99.90;;;;;;5009415;28;20207;-75
2022/04/29 02:17:03;;;;;;;9.50;7.55;;;15.10;99.90;;;;;;5003280;28;20208;-75
2022/04/29 02:19:31;;;;;;;7.75;6.90;;;15.00;99.90;;;;;;5010024;28;20251;-75
2022/04/29 02:21:58;;;;;;;8.30;6.97;;;15.00;99.90;;;;;;5010049;28;20781;-74
2022/04/29 02:24:26;;;;;;;10.15;6.38;;;15.00;99.90;;;;;;5009823;28;20615;-74
2022/04/29 02:26:53;;;;;;;7.80;6.53;;;15.00;99.90;;;;;;5005010;28;20215;-76
2022/04/29 02:29:20;;;;;;;7.50;6.40;;;15.00;99.90;;;;;;4998901;28;20205;-74
2022/04/29 02:31:49;;;;;;;7.00;5.68;;;15.00;99.90;;;;;;5007819;28;20208;-74
2022/04/29 02:34:16;;;;;;;9.00;5.82;;;15.00;99.90;;;;;;5010200;28;20204;-75
2022/04/29 02:36:43;;;;;;;8.85;5.93;;;15.00;99.90;;;;;;5010081;28;20209;-74
2022/04/29 02:39:10;;;;;;;7.55;5.95;;;15.00;99.90;;;;;;5010446;28;20633;-73
2022/04/29 02:41:37;;;;;;;7.63;6.53;;;15.00;99.90;;;;;;5009796;28;20224;-74
2022/04/29 02:44:05;;;;;;;8.68;6.15;;;15.00;99.90;;;;;;5010172;28;20207;-74
2022/04/29 02:46:32;;;;;;;9.82;8.50;;;14.90;99.90;;;;;;5011444;28;20671;-74
2022/04/29 02:49:00;;;;;;;10.25;6.57;;;14.90;99.90;;;;;;5013336;28;20266;-73
2022/04/29 02:51:27;;;;;;;6.65;5.60;;;14.90;99.90;;;;;;5013688;28;20204;-74
2022/04/29 02:53:54;;;;;;;8.02;5.18;;;14.90;99.90;;;;;;5013535;28;20660;-74
2022/04/29 02:56:21;;;;;;;9.02;6.78;;;14.90;99.90;;;;;;5013626;28;20201;-74
2022/04/29 02:58:48;;;;;;;7.78;6.53;;;14.90;99.90;;;;;;5013664;28;20212;-74
2022/04/29 03:01:15;;;;;;;6.18;4.75;;;14.80;99.90;;;;;;5013727;28;20224;-74
2022/04/29 03:03:42;;;;;;;7.70;5.38;;;14.80;99.90;;;;;;5014221;28;20242;-74
2022/04/29 03:06:11;;;;;;;7.35;4.60;;;14.90;99.90;;;;;;5013853;28;20197;-75
2022/04/29 03:08:38;;;;;;;5.10;4.40;;;14.90;99.90;;;;;;5012887;28;20641;-74
2022/04/29 03:11:05;;;;;;;7.45;4.60;;;14.90;99.90;;;;;;5013133;28;20926;-74
2022/04/29 03:13:32;;;;;;;8.90;4.10;;;14.80;99.90;;;;;;5013088;28;20695;-72
2022/04/29 03:15:59;;;;;;;5.22;4.25;;;14.80;99.90;;;;;;5013348;28;20208;-72
2022/04/29 03:18:26;;;;;;;5.78;4.13;;;14.80;99.90;;;;;;5013387;28;20691;-73
2022/04/29 03:20:56;;;;;;;9.18;5.20;;;14.80;99.90;;;;;;5013423;28;20296;-73
2022/04/29 03:23:25;;;;;;;4.22;3.70;;;14.80;99.90;;;;;;5013077;28;20446;-73
2022/04/29 03:25:52;;;;;;;3.70;3.40;;;14.90;99.90;;;;;;5013178;28;20559;-73
2022/04/29 03:28:19;;;;;;;3.58;3.03;;;14.80;99.90;;;;;;5008731;28;20247;-73
2022/04/29 03:30:47;;;;;;;4.28;3.05;;;14.80;99.90;;;;;;5012904;28;20637;-74
2022/04/29 03:33:14;;;;;;;3.80;3.22;;;14.80;99.90;;;;;;5012551;28;21684;-73
2022/04/29 03:35:43;;;;;;;3.63;3.33;;;14.80;99.90;;;;;;5012216;28;20216;-73
2022/04/29 03:38:10;;;;;;;4.47;3.85;;;14.70;99.90;;;;;;5012842;28;20212;-73
2022/04/29 03:40:39;;;;;;;3.55;2.72;;;14.70;99.90;;;;;;5012443;28;20204;-73
2022/04/29 03:43:06;;;;;;;3.53;3.17;;;14.70;99.90;;;;;;5012669;28;20208;-73
2022/04/29 03:45:34;;;;;;;4.43;3.50;;;14.70;99.90;;;;;;5012702;28;20278;-73
2022/04/29 03:48:01;;;;;;;3.92;2.97;;;14.60;99.90;;;;;;5012387;28;20208;-73
2022/04/29 03:50:29;;;;;;;6.03;3.00;;;14.60;99.90;;;;;;5012538;28;20614;-72
2022/04/29 03:52:58;;;;;;;4.22;3.38;;;14.60;99.90;;;;;;5012449;28;20212;-72
2022/04/29 03:55:27;;;;;;;3.35;3.08;;;14.50;99.90;;;;;;5012744;28;20469;-72
2022/04/29 03:57:56;;;;;;;2.90;2.60;;;14.50;99.90;;;;;;5011828;28;20208;-73
2022/04/29 04:00:24;;;;;;;4.15;3.17;;;14.50;99.90;;;;;;5011814;28;20217;-73
2022/04/29 04:02:51;;;;;;;3.42;3.13;;;14.50;99.90;;;;;;5012400;28;20785;-72
2022/04/29 04:05:19;;;;;;;3.45;3.00;;;14.40;99.90;;;;;;5011622;28;20208;-73
2022/04/29 04:07:46;;;;;;;3.15;2.85;;;14.50;99.90;;;;;;5012543;28;20286;-73
2022/04/29 04:10:13;;;;;;;3.03;2.70;;;14.40;99.90;;;;;;5011700;28;20663;-73
2022/04/29 04:12:41;;;;;;;4.93;4.20;;;14.50;99.90;;;;;;5012226;28;20208;-73
2022/04/29 04:15:11;;;;;;;3.20;2.83;;;14.50;99.90;;;;;;5012045;28;20208;-73
2022/04/29 04:17:39;;;;;;;4.35;3.33;;;14.50;99.90;;;;;;5011341;28;20205;-73
2022/04/29 04:20:07;;;;;;;3.47;3.28;;;14.50;99.90;;;;;;5011994;28;20691;-73
2022/04/29 04:22:35;;;;;;;4.00;3.22;;;14.50;99.90;;;;;;5011071;28;20278;-73
2022/04/29 04:25:04;;;;;;;5.63;3.55;;;14.50;99.90;;;;;;5012003;28;20295;-73
2022/04/29 04:27:31;;;;;;;4.10;3.38;;;14.50;99.90;;;;;;5011196;28;20211;-73
2022/04/29 04:29:58;;;;;;;4.55;3.10;;;14.60;99.90;;;;;;5012094;28;20762;-73
2022/04/29 04:32:27;;;;;;;3.85;3.47;;;14.60;99.90;;;;;;5011328;28;20271;-74
2022/04/29 04:34:55;;;;;;;3.42;2.67;;;14.60;99.90;;;;;;5011644;28;20675;-73
2022/04/29 04:37:22;;;;;;;4.55;3.58;;;14.60;99.90;;;;;;5011230;28;20303;-73
2022/04/29 04:39:51;;;;;;;3.72;3.30;;;14.60;99.90;;;;;;5011951;28;20204;-73
2022/04/29 04:42:18;;;;;;;4.10;3.72;;;14.50;99.90;;;;;;5010874;28;20228;-73
2022/04/29 04:44:47;;;;;;;4.25;3.70;;;14.50;99.90;;;;;;5011476;28;20214;-74
2022/04/29 04:47:14;;;;;;;3.42;3.13;;;14.40;99.90;;;;;;5007904;28;20208;-74
2022/04/29 04:49:43;;;;;;;5.65;3.60;;;14.40;99.90;;;;;;5011386;28;20213;-73
2022/04/29 04:52:10;;;;;;;4.07;3.58;;;14.40;99.90;;;;;;5011911;28;20208;-73
2022/04/29 04:54:38;;;;;;;5.05;3.50;;;14.30;99.90;;;;;;5011044;28;20204;-73
2022/04/29 04:57:06;;;;;;;3.47;3.03;;;14.40;99.90;;;;;;5011389;28;20204;-73
2022/04/29 04:59:33;;;;;;;3.65;3.35;;;14.30;99.90;;;;;;5011050;28;20262;-73
2022/04/29 05:02:00;;;;;;;5.18;3.15;;;14.30;99.90;;;;;;5011272;28;20228;-73
2022/04/29 05:04:27;;;;;;;3.05;2.80;;;14.30;99.90;;;;;;5011109;28;20204;-72
2022/04/29 05:06:55;;;;;;;5.25;3.65;;;14.30;99.90;;;;;;5011193;28;20274;-72
2022/04/29 05:09:22;;;;;;;3.55;3.25;;;14.30;99.90;;;;;;5010932;28;20200;-73
2022/04/29 05:11:49;;;;;;;3.65;3.08;;;14.30;99.90;;;;;;5010857;28;20585;-73
2022/04/29 05:14:16;;;;;;;5.53;3.15;;;14.30;99.90;;;;;;5008216;28;20725;-73
2022/04/29 05:16:43;;;;;;;5.18;3.15;;;14.30;99.90;;;;;;5009873;28;20251;-72
2022/04/29 05:19:10;;;;;;;4.63;3.50;;;14.30;99.90;;;;;;5011038;28;20200;-74
2022/04/29 05:21:38;;;;;;;4.18;3.50;;;14.30;99.90;;;;;;5006343;28;20286;-84
2022/04/29 05:24:07;;;;;;;5.00;3.40;;;14.40;99.90;;;;;;5011016;28;20208;-73
2022/04/29 05:26:34;;;;;;;4.15;3.70;;;14.50;99.90;;;;;;5007533;28;20215;-73
2022/04/29 05:29:01;;;;;;;3.67;3.22;;;14.40;99.90;;;;;;5002344;28;20247;-72
2022/04/29 05:31:28;;;;;;;4.15;3.47;;;14.40;99.90;;;;;;5007069;28;20204;-73
2022/04/29 05:33:56;;;;;;;6.45;3.25;;;14.40;99.90;;;;;;5008762;28;20299;-73
2022/04/29 05:36:23;;;;;;;4.25;2.83;;;14.40;99.90;;;;;;5008105;28;20247;-73
2022/04/29 05:44:21;;;;;;;3.58;3.10;;;14.30;99.90;;;;;;5008729;28;20211;-73
2022/04/29 05:46:48;;;;;;;3.28;2.97;;;14.30;99.90;;;;;;5009236;28;20205;-74
2022/04/29 05:49:14;;;;;;;3.85;2.83;;;14.30;99.90;;;;;;5009174;28;20220;-74
2022/04/29 05:51:41;;;;;;;5.35;3.78;;;14.30;99.90;;;;;;5000656;28;20220;-73
2022/04/29 05:54:09;;;;;;;6.78;3.67;;;14.30;99.90;;;;;;5009310;28;20204;-73
2022/04/29 05:56:39;;;;;;;5.53;3.22;;;14.30;99.90;;;;;;5004343;28;20540;-75
2022/04/29 05:59:06;;;;;;;5.72;3.90;;;14.30;99.90;;;;;;5008066;28;20212;-76
2022/04/29 06:01:33;;;;;;;5.15;3.58;;;14.40;99.90;;;;;;5009121;28;20662;-75
2022/04/29 06:04:00;;;;;;;3.63;2.72;;;14.50;99.90;;;;;;5008396;28;20207;-75
2022/04/29 06:06:27;;;;;;;3.72;3.08;;;14.60;99.90;;;;;;5007991;28;20212;-75
2022/04/29 06:08:54;;;;;;;4.35;3.65;;;14.50;99.90;;;;;;5006454;28;20329;-75
2022/04/29 06:11:21;;;;;;;4.18;3.45;;;14.50;99.90;;;;;;5007990;28;20566;-75
2022/04/29 06:13:50;;;;;;;3.28;2.97;;;14.50;99.90;;;;;;5009918;28;20259;-76
2022/04/29 06:16:17;;;;;;;4.00;3.60;;;14.50;99.90;;;;;;5004107;28;20212;-75
2022/04/29 06:18:44;;;;;;;4.28;3.78;;;14.50;99.90;;;;;;5009076;28;20295;-75
2022/04/29 06:21:11;;;;;;;5.35;3.58;;;14.70;99.90;;;;;;5010942;28;20201;-75
2022/04/29 06:23:38;;;;;;;4.68;3.28;;;14.80;99.90;;;;;;5009984;28;20262;-75
2022/04/29 06:26:05;;;;;;;5.70;4.25;;;14.80;99.90;;;;;;5008244;28;20680;-75
2022/04/29 06:28:32;;;;;;;3.92;2.95;;;14.80;99.90;;;;;;5013169;28;20262;-73
2022/04/29 06:31:01;;;;;;;5.53;4.32;;;14.80;99.90;;;;;;5011030;28;20668;-71
2022/04/29 06:33:30;;;;;;;3.53;2.97;;;14.70;99.90;;;;;;5010892;28;20571;-72
2022/04/29 06:35:57;;;;;;;6.47;3.80;;;14.90;99.90;;;;;;5012076;28;20208;-80
2022/04/29 06:38:24;;;;;;;3.33;3.03;;;14.90;99.90;;;;;;5013206;28;20204;-75
2022/04/29 06:40:52;;;;;;;11.55;3.90;;;14.90;99.90;;;;;;5013569;28;20644;-77
2022/04/29 06:43:19;;;;;;;4.40;4.00;;;14.80;99.90;;;;;;5012501;28;20734;-74
2022/04/29 06:45:47;;;;;;;4.82;3.33;;;14.80;99.90;;;;;;5012884;28;20204;-74
2022/04/29 06:48:15;;;;;;;6.00;3.92;;;14.80;99.90;;;;;;5013244;28;20208;-74
2022/04/29 06:50:43;;;;;;;6.18;3.00;;;14.90;99.90;;;;;;5013314;28;20216;-77
2022/04/29 06:53:10;;;;;;;4.55;3.70;;;15.00;99.90;;;;;;5013958;28;20205;-79
2022/04/29 06:55:38;;;;;;;4.05;3.28;;;15.00;99.90;;;;;;5012771;28;20747;-76
2022/04/29 06:58:05;;;;;;;3.97;3.63;;;14.90;99.90;;;;;;5013340;28;20212;-75
2022/04/29 07:00:32;;;;;;;5.00;3.53;;;14.90;99.90;;;;;;5012585;28;20199;-78
2022/04/29 07:03:01;;;;;;;5.63;4.28;;;15.00;99.90;;;;;;5012820;28;20282;-75
2022/04/29 07:05:31;;;;;;;3.40;3.10;;;15.00;99.90;;;;;;5011427;28;20287;-73
2022/04/29 07:07:58;;;;;;;3.92;3.40;;;15.10;99.90;;;;;;5012941;28;20212;-73
2022/04/29 07:10:25;;;;;;;6.32;3.45;;;15.20;99.90;;;;;;5009109;28;20266;-78
2022/04/29 07:12:52;;;;;;;4.88;3.55;;;15.30;99.90;;;;;;5009387;28;20208;-77
2022/04/29 07:15:21;;;;;;;4.30;3.90;;;15.50;99.90;;;;;;5006839;28;20216;-76
2022/04/29 07:17:48;;;;;;;4.50;3.63;;;15.60;99.90;;;;;;5008463;28;20212;-73
2022/04/29 07:20:16;;;;;;;7.00;3.70;;;15.60;99.90;;;;;;5007586;28;20266;-78
2022/04/29 07:22:44;;;;;;;3.45;3.15;;;15.60;99.90;;;;;;5012671;28;20236;-76
2022/04/29 07:25:13;;;;;;;5.10;3.47;;;15.50;99.90;;;;;;5011157;28;20200;-76
2022/04/29 07:27:40;;;;;;;6.93;3.72;;;15.50;99.90;;;;;;5010532;28;20219;-75
2022/04/29 07:30:10;;;;;;;10.35;4.13;;;15.50;99.90;;;;;;5008215;28;20208;-77
2022/04/29 07:32:37;;;;;;;11.32;3.85;;;15.60;99.90;;;;;;5012002;28;20676;-75
2022/04/29 07:43:21;;;;;;;4.15;3.42;;;15.30;99.90;;;;;;5011818;28;20304;-75
2022/04/29 07:45:49;;;;;;;10.38;4.03;;;15.30;99.90;;;;;;5007651;28;20587;-77
2022/04/29 07:48:16;;;;;;;4.45;3.50;;;15.40;99.90;;;;;;5012030;28;20213;-73
2022/04/29 07:50:43;;;;;;;4.07;3.08;;;15.40;99.90;;;;;;5005029;28;20273;-74
2022/04/29 07:53:11;;;;;;;8.02;3.50;;;15.30;99.90;;;;;;5011317;28;20220;-74
2022/04/29 07:55:39;;;;;;;5.25;3.92;;;15.30;99.90;;;;;;5012430;28;20704;-76
2022/04/29 07:58:06;;;;;;;4.68;4.05;;;15.30;99.90;;;;;;5013759;28;20211;-78
2022/04/29 08:00:33;;;;;;;4.88;4.22;;;15.50;99.90;;;;;;5010241;28;20278;-79
2022/04/29 08:03:01;;;;;;;5.53;4.03;;;15.60;99.90;;;;;;5012637;28;20243;-72
2022/04/29 08:05:28;;;;;;;5.57;3.83;;;15.70;99.90;;;;;;5011818;28;20204;-73
2022/04/29 08:07:59;;;;;;;6.15;4.18;;;15.80;99.90;;;;;;5004143;28;20246;-73
2022/04/29 08:10:28;;;;;;;4.97;4.22;;;16.00;99.90;;;;;;5011807;28;20204;-71
2022/04/29 08:12:55;;;;;;;4.13;3.50;;;16.10;99.90;;;;;;5011799;28;20220;-72
2022/04/29 08:15:22;;;;;;;5.65;3.60;;;16.00;99.90;;;;;;5010605;28;20270;-71
2022/04/29 08:17:49;;;;;;;4.70;3.67;;;16.00;99.90;;;;;;5010918;28;20644;-76
2022/04/29 08:20:16;;;;;;;4.25;3.22;;;16.10;99.90;;;;;;5007630;28;20208;-78
2022/04/29 08:22:43;;;;;;;4.22;3.83;;;16.00;99.90;;;;;;5008958;28;20240;-75
2022/04/29 08:25:10;;;;;;;4.75;3.95;;;16.10;99.90;;;;;;5010061;28;20212;-75
2022/04/29 08:27:39;;;;;;;6.25;4.10;;;16.10;99.90;;;;;;5007052;28;20278;-76
2022/04/29 08:30:07;;;;;;;3.97;3.55;;;16.20;99.90;;;;;;5007429;28;20212;-77
2022/04/29 08:32:38;;;;;;;4.68;3.97;;;16.20;99.90;;;;;;5007740;28;20665;-77
2022/04/29 08:35:06;;;;;;;4.72;4.25;;;16.20;99.90;;;;;;5007016;28;20624;-77
2022/04/29 08:37:33;;;;;;;6.70;3.92;;;16.40;99.90;;;;;;5011304;28;20208;-77
2022/04/29 08:40:00;;;;;;;4.97;3.38;;;16.60;99.90;;;;;;5009404;28;20208;-75
2022/04/29 08:42:28;;;;;;;5.82;4.00;;;16.70;99.90;;;;;;5008778;28;20231;-74
2022/04/29 08:44:59;;;;;;;5.90;3.60;;;16.70;99.90;;;;;;5010875;28;20236;-78
2022/04/29 08:47:27;;;;;;;8.52;3.80;;;16.50;99.90;;;;;;5005303;28;20196;-77
2022/04/29 08:49:55;;;;;;;4.35;3.95;;;16.60;99.90;;;;;;5011189;28;20208;-78
2022/04/29 08:52:22;;;;;;;5.68;4.45;;;16.70;99.90;;;;;;5010526;28;20633;-76
2022/04/29 09:00:25;;;;;;;5.00;4.28;;;16.80;99.90;;;;;;5010194;28;20226;-77
2022/04/29 09:02:52;;;;;;;4.22;3.58;;;16.80;99.90;;;;;;5010637;28;20290;-78
2022/04/29 09:05:19;;;;;;;4.68;3.80;;;16.80;99.90;;;;;;5010670;28;20597;-76
2022/04/29 09:07:53;;;;;;;4.00;3.63;;;17.00;99.90;;;;;;5011198;28;20278;-76
2022/04/29 09:10:21;;;;;;;4.05;3.67;;;17.10;99.90;;;;;;5012202;28;20295;-76
2022/04/29 09:12:48;;;;;;;3.88;3.47;;;17.20;99.90;;;;;;5010888;28;20883;-76
2022/04/29 09:15:17;;;;;;;4.57;4.10;;;17.10;99.90;;;;;;5009990;28;20671;-76
2022/04/29 09:17:47;;;;;;;4.90;4.38;;;17.00;99.90;;;;;;5011157;28;20675;-75
2022/04/29 09:20:16;;;;;;;4.55;4.15;;;16.90;99.90;;;;;;5011611;28;20218;-76
2022/04/29 09:22:46;;;;;;;4.20;3.78;;;17.00;99.90;;;;;;5006629;28;20703;-76
2022/04/29 09:25:14;;;;;;;5.95;4.13;;;17.10;99.90;;;;;;5009154;28;20232;-76
2022/04/29 09:27:55;;;;;;;3.63;3.25;;;17.00;99.90;;;;;;5010883;28;20590;-75
2022/04/29 09:30:33;;;;;;;4.05;3.67;;;16.90;99.90;;;;;;5008275;28;20212;-75
2022/04/29 09:33:01;;;;;;;6.50;3.95;;;17.20;99.90;;;;;;5009372;28;20215;-74
2022/04/29 09:35:39;;;;;;;4.07;3.67;;;17.40;99.90;;;;;;5007194;28;20208;-75
2022/04/29 09:40:52;;;;;;;4.25;3.85;;;17.60;99.90;;;;;;5008917;28;20293;-74
2022/04/29 09:43:32;;;;;;;6.00;4.32;;;17.50;99.90;;;;;;5008264;28;20231;-74
2022/04/29 09:46:20;;;;;;;5.68;3.90;;;17.70;99.90;;;;;;5003726;28;20282;-76
2022/04/29 09:49:04;;;;;;;3.63;3.33;;;18.20;99.90;;;;;;5010037;28;20254;-76
2022/04/29 09:51:48;;;;;;;3.45;3.15;;;18.60;99.90;;;;;;5009990;28;20690;-75
2022/04/29 09:54:24;;;;;;;4.30;3.67;;;18.50;99.90;;;;;;5003546;28;20222;-77
2022/04/29 09:57:06;;;;;;;5.53;4.05;;;18.80;99.90;;;;;;5009934;28;20200;-77
2022/04/29 09:59:35;;;;;;;7.85;3.60;;;21.10;99.90;;;;;;5008301;28;20694;-76
2022/04/29 10:02:02;;;;;;;4.47;4.05;;;23.70;99.90;;;;;;5002318;28;20620;-78
2022/04/29 10:04:34;;;;;;;4.18;3.30;;;21.40;99.90;;;;;;5010009;28;20239;-76
2022/04/29 10:07:04;;;;;;;3.88;3.33;;;21.30;99.90;;;;;;5009956;28;20223;-76
2022/04/29 10:09:33;;;;;;;4.22;3.90;;;20.10;99.90;;;;;;5009560;28;20210;-75
2022/04/29 10:12:02;;;;;;;9.23;3.70;;;20.70;99.90;;;;;;5009574;28;20235;-75
2022/04/29 10:14:31;;;;;;;4.43;4.03;;;22.00;99.90;;;;;;5009984;28;20310;-77
2022/04/29 10:22:38;;;;;;;5.03;3.78;;;21.40;99.90;;;;;;5005486;28;20701;-78
2022/04/29 10:25:08;;;;;;;10.00;3.83;;;22.90;99.90;;;;;;5010296;28;20204;-77
2022/04/29 10:27:37;;;;;;;5.85;3.10;;;24.80;99.90;;;;;;5010555;28;20610;-75
2022/04/29 10:30:06;;;;;;;3.33;2.80;;;25.90;99.90;;;;;;5005406;28;20209;-80
2022/04/29 10:32:59;;;;;;;4.47;3.50;;;22.70;99.90;;;;;;5005588;28;20208;-73
2022/04/29 10:38:27;;;;;;;3.30;2.50;;;21.00;99.90;;;;;;5098381;27;21119;-76
2022/04/29 10:41:25;;;;;;;2.88;2.67;;;20.60;99.90;;;;;;5090153;28;20253;-75
2022/04/29 10:44:05;;;;;;;6.32;2.75;;;20.70;99.90;;;;;;5055602;28;20673;-75
2022/04/29 10:46:35;;;;;;;3.20;2.88;;;20.10;99.90;;;;;;5070905;28;20208;-75
2022/04/29 10:49:24;;;;;;;3.80;2.75;;;20.40;99.90;;;;;;5087264;28;20588;-74
2022/04/29 10:51:53;;;;;;;3.28;2.70;;;20.60;99.90;;;;;;5087781;28;20201;-76
2022/04/29 10:54:50;;;;;;;3.38;3.08;;;20.50;99.90;;;;;;5087252;28;20695;-75
2022/04/29 10:57:17;;;;;;;2.88;2.30;;;20.70;99.90;;;;;;5087013;28;20233;-75
2022/04/29 10:59:51;;;;;;;3.70;3.25;;;20.30;99.90;;;;;;5087793;28;20622;-74
2022/04/29 11:02:27;;;;;;;13.20;3.60;;;20.40;99.90;;;;;;5088188;28;20675;-75
2022/04/29 11:04:54;;;;;;;7.00;3.45;;;20.40;99.90;;;;;;5087399;28;20245;-74
2022/04/29 11:07:46;;;;;;;3.45;3.13;;;20.30;99.90;;;;;;5086719;28;20202;-75
2022/04/29 11:10:22;;;;;;;3.00;2.70;;;20.50;99.90;;;;;;5069441;28;20210;-75
2022/04/29 11:12:59;;;;;;;3.72;3.28;;;20.90;99.90;;;;;;5094724;28;20213;-76
2022/04/29 11:15:41;;;;;;;3.90;3.20;;;21.00;99.90;;;;;;5087092;28;20233;-75
2022/04/29 11:18:20;;;;;;;3.30;2.90;;;21.00;99.90;;;;;;5077908;28;20272;-75
2022/04/29 11:20:48;;;;;;;8.88;3.47;;;21.00;99.90;;;;;;5084631;28;20205;-74
2022/04/29 11:26:12;;;;;;;6.03;3.95;;;21.30;99.90;;;;;;5086809;28;20332;-75
2022/04/29 11:28:39;;;;;;;5.18;2.83;;;20.90;99.90;;;;;;5086964;28;20202;-75
2022/04/29 11:31:27;;;;;;;5.35;2.90;;;20.70;99.90;;;;;;5093704;28;20201;-75
2022/04/29 11:34:06;;;;;;;4.57;3.03;;;21.00;99.90;;;;;;5096341;28;20761;-74
2022/04/29 11:36:33;;;;;;;2.95;2.75;;;21.40;99.90;;;;;;5087275;28;20632;-74
2022/04/29 11:39:09;;;;;;;3.30;2.97;;;21.20;99.90;;;;;;5089119;28;20201;-76
2022/04/29 11:41:37;;;;;;;4.60;2.80;;;21.40;99.90;;;;;;5078936;28;20205;-74
2022/04/29 11:44:04;;;;;;;3.28;2.97;;;20.80;99.90;;;;;;5082497;28;20727;-75
2022/04/29 11:46:32;;;;;;;5.25;3.60;;;20.50;99.90;;;;;;5084711;28;20202;-75
2022/04/29 11:49:01;;;;;;;3.85;2.97;;;20.70;99.90;;;;;;5076255;28;20202;-76
2022/04/29 11:51:30;;;;;;;3.70;3.20;;;21.10;99.90;;;;;;5068475;28;20210;-75
2022/04/29 11:54:00;;;;;;;12.77;3.67;;;21.10;99.90;;;;;;5080529;28;20589;-76
2022/04/29 11:56:39;;;;;;;4.10;2.83;;;21.50;99.90;;;;;;5072619;28;20198;-75
2022/04/29 11:59:09;;;;;;;3.20;2.72;;;21.50;99.90;;;;;;5065448;28;20205;-76
2022/04/29 12:01:37;;;;;;;6.25;3.15;;;21.60;99.90;;;;;;5071962;28;20263;-77
2022/04/29 12:04:05;;;;;;;6.28;3.97;;;21.80;99.90;;;;;;5067145;28;20206;-78
2022/04/29 12:06:32;;;;;;;3.63;2.88;;;21.80;99.90;;;;;;5076872;28;20700;-75
2022/04/29 12:08:59;;;;;;;6.00;3.08;;;21.90;99.90;;;;;;5074665;28;20267;-76
2022/04/29 12:11:27;;;;;;;3.35;3.00;;;22.00;99.90;;;;;;5066730;28;20677;-79
2022/04/29 12:13:56;;;;;;;4.00;3.60;;;22.00;99.90;;;;;;5075253;28;20214;-76
2022/04/29 12:16:23;;;;;;;4.18;3.78;;;21.90;99.90;;;;;;5074495;28;20214;-78
2022/04/29 12:18:52;;;;;;;3.65;3.35;;;21.90;99.90;;;;;;5073232;28;20207;-79
2022/04/29 12:21:24;;;;;;;5.75;3.08;;;21.90;99.90;;;;;;5070780;28;20206;-78
2022/04/29 12:23:51;;;;;;;3.63;3.30;;;22.10;99.90;;;;;;5082626;28;20251;-79
2022/04/29 12:26:19;;;;;;;6.95;3.05;;;22.00;99.90;;;;;;5071476;28;20210;-79
2022/04/29 12:28:55;;;;;;;3.88;3.55;;;22.10;99.90;;;;;;5081802;28;20653;-78
2022/04/29 12:36:54;;;;;;;5.30;3.67;;;22.00;99.90;;;;;;5071474;28;20313;-76
2022/04/29 12:39:24;;;;;;;4.18;2.78;;;22.20;99.90;;;;;;5070679;28;20198;-75
2022/04/29 12:42:00;;;;;;;3.80;3.45;;;22.20;99.90;;;;;;5069952;28;20568;-76
2022/04/29 12:47:32;;;;;;;6.50;4.07;;;22.30;99.90;;;;;;5070419;28;20205;-75
2022/04/29 12:50:18;;;;;;;5.03;3.15;;;22.20;99.90;;;;;;5075156;28;20198;-79
2022/04/29 12:52:54;;;;;;;5.70;4.43;;;22.10;99.90;;;;;;5064893;28;20209;-78
2022/04/29 12:55:21;;;;;;;4.20;3.90;;;22.60;99.90;;;;;;5071147;28;20205;-86
2022/04/29 12:57:51;;;;;;;3.65;3.35;;;22.50;99.90;;;;;;5071720;28;20657;-80
2022/04/29 13:00:26;;;;;;;4.70;3.53;;;21.90;99.90;;;;;;5071330;28;20220;-86
2022/04/29 13:03:01;;;;;;;6.47;3.60;;;22.20;99.90;;;;;;5066075;28;20255;-82
2022/04/29 13:05:29;;;;;;;9.55;4.38;;;22.70;99.90;;;;;;5068783;28;20202;-79
2022/04/29 13:07:56;;;;;;;4.65;3.83;;;22.90;99.90;;;;;;5062380;28;20210;-85
2022/04/29 13:10:24;;;;;;;5.10;3.88;;;23.00;99.90;;;;;;5072474;28;20202;-85
2022/04/29 13:12:51;;;;;;;6.00;3.47;;;23.10;99.90;;;;;;5072533;28;20206;-81
2022/04/29 13:15:18;;;;;;;6.00;3.72;;;23.60;99.90;;;;;;5072116;28;20214;-79
2022/04/29 13:17:47;;;;;;;4.20;3.58;;;23.80;99.90;;;;;;5068062;28;20290;-77
2022/04/29 13:20:14;;;;;;;4.78;4.15;;;23.40;99.90;;;;;;5071464;28;20205;-78
2022/04/29 13:22:42;;;;;;;3.92;3.38;;;23.60;99.90;;;;;;5070357;28;20293;-84
2022/04/29 13:25:10;;;;;;;7.88;3.85;;;23.80;99.90;;;;;;5071431;28;20305;-81
2022/04/29 13:27:38;;;;;;;4.85;3.55;;;23.70;99.90;;;;;;5071996;28;20762;-83
2022/04/29 13:30:06;;;;;;;4.47;3.40;;;23.50;99.90;;;;;;5067611;28;20206;-74
2022/04/29 13:32:33;;;;;;;5.18;4.05;;;23.10;99.90;;;;;;5065701;28;20598;-74
2022/04/29 13:35:02;;;;;;;3.50;3.20;;;22.90;99.90;;;;;;5070478;28;20199;-76
2022/04/29 13:37:32;;;;;;;4.65;4.07;;;22.80;99.90;;;;;;5069122;28;20660;-78